sensor_id;sensor_type;location;lat;lon;timestamp;temperature;humidity
77803;DHT22;66993;48.256;16.422;2023-02-20T00:00:17;4.4;99.0
77803;DHT22;66993;48.256;16.422;2023-02-20T00:05:16;4.4;99.0
77803;DHT22;66993;48.256;16.422;2023-02-20T00:10:16;4.2;99.0
77803;DHT22;66993;48.256;16.422;2023-02-20T00:15:16;4.2;99.0
77803;DHT22;66993;48.256;16.422;2023-02-20T00:20:17;4.1;99.0
77803;DHT22;66993;48.256;16.422;2023-02-20T00:25:16;4.1;99.0
77803;DHT22;66993;48.256;16.422;2023-02-20T00:30:16;4.1;98.0
77803;DHT22;66993;48.256;16.422;2023-02-20T00:35:16;4.1;98.0
77803;DHT22;66993;48.256;16.422;2023-02-20T00:40:16;4.0;97.0
77803;DHT22;66993;48.256;16.422;2023-02-20T00:45:16;4.1;96.0
77803;DHT22;66993;48.256;16.422;2023-02-20T00:50:16;4.1;95.0
77803;DHT22;66993;48.256;16.422;2023-02-20T00:55:16;4.2;95.0
77803;DHT22;66993;48.256;16.422;2023-02-20T01:00:17;4.1;94.0
77803;DHT22;66993;48.256;16.422;2023-02-20T01:05:16;4.0;92.0
77803;DHT22;66993;48.256;16.422;2023-02-20T01:10:16;4.0;90.0
77803;DHT22;66993;48.256;16.422;2023-02-20T01:15:16;4.1;89.0
77803;DHT22;66993;48.256;16.422;2023-02-20T01:20:16;4.1;88.0
77803;DHT22;66993;48.256;16.422;2023-02-20T01:25:16;4.0;87.0
77803;DHT22;66993;48.256;16.422;2023-02-20T01:30:16;4.0;85.0
77803;DHT22;66993;48.256;16.422;2023-02-20T01:35:16;4.1;85.0
77803;DHT22;66993;48.256;16.422;2023-02-20T01:40:17;3.9;85.0
77803;DHT22;66993;48.256;16.422;2023-02-20T01:45:17;4.0;85.0
77803;DHT22;66993;48.256;16.422;2023-02-20T01:50:16;3.9;84.0
77803;DHT22;66993;48.256;16.422;2023-02-20T01:55:17;3.9;84.0
77803;DHT22;66993;48.256;16.422;2023-02-20T02:00:17;3.9;84.0
77803;DHT22;66993;48.256;16.422;2023-02-20T02:05:16;3.9;84.0
77803;DHT22;66993;48.256;16.422;2023-02-20T02:10:18;3.9;84.0
77803;DHT22;66993;48.256;16.422;2023-02-20T02:15:17;4.0;84.0
77803;DHT22;66993;48.256;16.422;2023-02-20T02:20:28;3.9;85.0
77803;DHT22;66993;48.256;16.422;2023-02-20T02:25:18;4.1;85.0
77803;DHT22;66993;48.256;16.422;2023-02-20T02:30:21;4.1;85.0
77803;DHT22;66993;48.256;16.422;2023-02-20T02:35:21;4.1;85.0
77803;DHT22;66993;48.256;16.422;2023-02-20T02:40:18;4.2;86.0
77803;DHT22;66993;48.256;16.422;2023-02-20T02:45:16;4.1;86.0
77803;DHT22;66993;48.256;16.422;2023-02-20T02:50:17;4.1;87.0
77803;DHT22;66993;48.256;16.422;2023-02-20T02:55:17;4.2;87.0
77803;DHT22;66993;48.256;16.422;2023-02-20T03:00:17;4.2;87.0
77803;DHT22;66993;48.256;16.422;2023-02-20T03:05:17;4.2;87.0
77803;DHT22;66993;48.256;16.422;2023-02-20T03:10:17;4.2;88.0
77803;DHT22;66993;48.256;16.422;2023-02-20T03:15:18;3.9;88.0
77803;DHT22;66993;48.256;16.422;2023-02-20T03:20:17;3.9;89.0
77803;DHT22;66993;48.256;16.422;2023-02-20T03:25:16;3.9;90.0
77803;DHT22;66993;48.256;16.422;2023-02-20T03:30:18;3.8;90.0
77803;DHT22;66993;48.256;16.422;2023-02-20T03:35:16;3.7;92.0
77803;DHT22;66993;48.256;16.422;2023-02-20T03:40:16;3.7;93.0
77803;DHT22;66993;48.256;16.422;2023-02-20T03:45:16;3.7;93.0
77803;DHT22;66993;48.256;16.422;2023-02-20T03:50:16;3.8;94.0
77803;DHT22;66993;48.256;16.422;2023-02-20T03:55:16;3.8;95.0
77803;DHT22;66993;48.256;16.422;2023-02-20T04:00:17;3.7;95.0
77803;DHT22;66993;48.256;16.422;2023-02-20T04:05:17;3.6;95.0
77803;DHT22;66993;48.256;16.422;2023-02-20T04:10:17;3.6;96.0
77803;DHT22;66993;48.256;16.422;2023-02-20T04:15:16;3.8;97.0
77803;DHT22;66993;48.256;16.422;2023-02-20T04:20:16;3.8;97.0
77803;DHT22;66993;48.256;16.422;2023-02-20T04:25:17;3.8;97.0
77803;DHT22;66993;48.256;16.422;2023-02-20T04:30:16;3.7;98.0
77803;DHT22;66993;48.256;16.422;2023-02-20T04:35:17;3.7;98.0
77803;DHT22;66993;48.256;16.422;2023-02-20T04:40:16;3.7;98.0
77803;DHT22;66993;48.256;16.422;2023-02-20T04:45:16;3.7;98.0
77803;DHT22;66993;48.256;16.422;2023-02-20T04:50:18;3.6;99.0
77803;DHT22;66993;48.256;16.422;2023-02-20T04:55:16;3.7;99.0
77803;DHT22;66993;48.256;16.422;2023-02-20T05:00:16;3.7;99.0
77803;DHT22;66993;48.256;16.422;2023-02-20T05:05:17;3.6;99.0
77803;DHT22;66993;48.256;16.422;2023-02-20T05:10:16;3.6;99.0
77803;DHT22;66993;48.256;16.422;2023-02-20T05:15:16;3.6;99.0
77803;DHT22;66993;48.256;16.422;2023-02-20T05:20:17;3.6;99.0
77803;DHT22;66993;48.256;16.422;2023-02-20T05:25:16;3.6;99.0
77803;DHT22;66993;48.256;16.422;2023-02-20T05:30:16;3.5;99.0
77803;DHT22;66993;48.256;16.422;2023-02-20T05:35:16;3.6;99.0
77803;DHT22;66993;48.256;16.422;2023-02-20T05:40:16;3.5;99.0
77803;DHT22;66993;48.256;16.422;2023-02-20T05:45:16;3.5;99.0
77803;DHT22;66993;48.256;16.422;2023-02-20T05:50:16;3.5;99.0
77803;DHT22;66993;48.256;16.422;2023-02-20T05:55:16;3.5;99.0
77803;DHT22;66993;48.256;16.422;2023-02-20T06:00:16;3.5;99.0
77803;DHT22;66993;48.256;16.422;2023-02-20T06:05:16;3.5;99.0
77803;DHT22;66993;48.256;16.422;2023-02-20T06:10:17;3.5;99.0
77803;DHT22;66993;48.256;16.422;2023-02-20T06:15:16;3.5;99.0
77803;DHT22;66993;48.256;16.422;2023-02-20T06:20:16;3.5;99.0
77803;DHT22;66993;48.256;16.422;2023-02-20T06:25:16;3.5;99.0
77803;DHT22;66993;48.256;16.422;2023-02-20T06:30:16;3.5;99.0
77803;DHT22;66993;48.256;16.422;2023-02-20T06:35:16;3.6;99.0
77803;DHT22;66993;48.256;16.422;2023-02-20T06:40:16;3.6;99.0
77803;DHT22;66993;48.256;16.422;2023-02-20T06:45:16;3.6;99.0
77803;DHT22;66993;48.256;16.422;2023-02-20T06:50:16;3.7;99.0
77803;DHT22;66993;48.256;16.422;2023-02-20T06:55:16;3.7;99.0
77803;DHT22;66993;48.256;16.422;2023-02-20T07:00:16;3.7;99.0
77803;DHT22;66993;48.256;16.422;2023-02-20T07:05:16;3.9;99.0
77803;DHT22;66993;48.256;16.422;2023-02-20T07:10:16;4.0;99.0
77803;DHT22;66993;48.256;16.422;2023-02-20T07:15:16;4.0;99.0
77803;DHT22;66993;48.256;16.422;2023-02-20T07:20:16;4.1;99.0
77803;DHT22;66993;48.256;16.422;2023-02-20T07:25:16;4.2;99.0
77803;DHT22;66993;48.256;16.422;2023-02-20T07:30:16;4.4;99.0
77803;DHT22;66993;48.256;16.422;2023-02-20T07:35:16;4.5;99.0
77803;DHT22;66993;48.256;16.422;2023-02-20T07:40:16;4.5;99.0
77803;DHT22;66993;48.256;16.422;2023-02-20T07:45:16;4.7;99.0
77803;DHT22;66993;48.256;16.422;2023-02-20T07:50:16;4.9;99.0
77803;DHT22;66993;48.256;16.422;2023-02-20T07:55:16;5.2;99.0
77803;DHT22;66993;48.256;16.422;2023-02-20T08:00:17;5.7;99.0
77803;DHT22;66993;48.256;16.422;2023-02-20T08:05:16;5.9;99.0
77803;DHT22;66993;48.256;16.422;2023-02-20T08:10:17;6.2;99.0
77803;DHT22;66993;48.256;16.422;2023-02-20T08:15:16;6.6;99.0
77803;DHT22;66993;48.256;16.422;2023-02-20T08:20:16;6.7;99.0
77803;DHT22;66993;48.256;16.422;2023-02-20T08:25:16;6.7;99.0
77803;DHT22;66993;48.256;16.422;2023-02-20T08:30:17;7.0;99.0
77803;DHT22;66993;48.256;16.422;2023-02-20T08:35:16;8.5;99.0
77803;DHT22;66993;48.256;16.422;2023-02-20T08:40:16;9.5;99.0
77803;DHT22;66993;48.256;16.422;2023-02-20T08:45:16;9.7;97.0
77803;DHT22;66993;48.256;16.422;2023-02-20T08:50:16;9.6;95.0
77803;DHT22;66993;48.256;16.422;2023-02-20T08:55:16;9.6;92.0
77803;DHT22;66993;48.256;16.422;2023-02-20T09:00:16;10.0;87.0
77803;DHT22;66993;48.256;16.422;2023-02-20T09:05:16;10.2;85.0
77803;DHT22;66993;48.256;16.422;2023-02-20T09:10:16;10.2;80.0
77803;DHT22;66993;48.256;16.422;2023-02-20T09:15:16;10.6;79.0
77803;DHT22;66993;48.256;16.422;2023-02-20T09:20:16;11.0;81.0
77803;DHT22;66993;48.256;16.422;2023-02-20T09:25:16;11.5;79.0
77803;DHT22;66993;48.256;16.422;2023-02-20T09:30:16;11.8;75.0
77803;DHT22;66993;48.256;16.422;2023-02-20T09:35:17;11.6;73.0
77803;DHT22;66993;48.256;16.422;2023-02-20T09:40:16;11.6;71.0
77803;DHT22;66993;48.256;16.422;2023-02-20T09:45:17;11.4;69.0
77803;DHT22;66993;48.256;16.422;2023-02-20T09:50:17;11.4;70.0
77803;DHT22;66993;48.256;16.422;2023-02-20T09:55:18;11.3;69.0
77803;DHT22;66993;48.256;16.422;2023-02-20T10:00:19;11.3;70.0
77803;DHT22;66993;48.256;16.422;2023-02-20T10:05:18;11.3;70.0
77803;DHT22;66993;48.256;16.422;2023-02-20T10:10:17;11.4;69.0
77803;DHT22;66993;48.256;16.422;2023-02-20T10:15:17;11.4;67.0
77803;DHT22;66993;48.256;16.422;2023-02-20T10:20:16;11.5;68.0
77803;DHT22;66993;48.256;16.422;2023-02-20T10:25:17;11.5;67.0
77803;DHT22;66993;48.256;16.422;2023-02-20T10:30:17;11.7;68.0
77803;DHT22;66993;48.256;16.422;2023-02-20T10:35:17;12.0;67.0
77803;DHT22;66993;48.256;16.422;2023-02-20T10:40:17;12.0;70.0
77803;DHT22;66993;48.256;16.422;2023-02-20T10:45:17;11.9;65.0
77803;DHT22;66993;48.256;16.422;2023-02-20T10:50:17;12.0;66.0
77803;DHT22;66993;48.256;16.422;2023-02-20T10:55:17;11.9;65.0
77803;DHT22;66993;48.256;16.422;2023-02-20T11:00:16;11.9;64.0
77803;DHT22;66993;48.256;16.422;2023-02-20T11:05:16;11.9;65.0
77803;DHT22;66993;48.256;16.422;2023-02-20T11:10:16;11.8;65.0
77803;DHT22;66993;48.256;16.422;2023-02-20T11:15:17;11.7;64.0
77803;DHT22;66993;48.256;16.422;2023-02-20T11:25:17;11.9;64.0
77803;DHT22;66993;48.256;16.422;2023-02-20T11:30:21;11.9;64.0
77803;DHT22;66993;48.256;16.422;2023-02-20T11:35:24;11.8;63.0
77803;DHT22;66993;48.256;16.422;2023-02-20T11:40:17;12.0;64.0
77803;DHT22;66993;48.256;16.422;2023-02-20T11:45:19;12.1;64.0
77803;DHT22;66993;48.256;16.422;2023-02-20T11:50:17;11.9;64.0
77803;DHT22;66993;48.256;16.422;2023-02-20T11:55:18;12.2;64.0
77803;DHT22;66993;48.256;16.422;2023-02-20T12:00:17;12.1;63.0
77803;DHT22;66993;48.256;16.422;2023-02-20T12:05:16;12.0;63.0
77803;DHT22;66993;48.256;16.422;2023-02-20T12:10:24;12.1;63.0
77803;DHT22;66993;48.256;16.422;2023-02-20T12:15:17;12.0;63.0
77803;DHT22;66993;48.256;16.422;2023-02-20T12:20:16;12.1;62.0
77803;DHT22;66993;48.256;16.422;2023-02-20T12:25:18;12.2;63.0
77803;DHT22;66993;48.256;16.422;2023-02-20T12:30:20;12.5;62.0
77803;DHT22;66993;48.256;16.422;2023-02-20T12:35:20;12.5;61.0
77803;DHT22;66993;48.256;16.422;2023-02-20T12:40:22;12.5;60.0
77803;DHT22;66993;48.256;16.422;2023-02-20T12:45:17;12.4;60.0
77803;DHT22;66993;48.256;16.422;2023-02-20T12:50:20;12.4;60.0
77803;DHT22;66993;48.256;16.422;2023-02-20T12:55:18;12.5;59.0
77803;DHT22;66993;48.256;16.422;2023-02-20T13:00:20;13.0;60.0
77803;DHT22;66993;48.256;16.422;2023-02-20T13:05:17;12.9;58.0
77803;DHT22;66993;48.256;16.422;2023-02-20T13:10:16;12.9;58.0
77803;DHT22;66993;48.256;16.422;2023-02-20T13:15:20;13.0;59.0
77803;DHT22;66993;48.256;16.422;2023-02-20T13:20:17;13.3;58.0
77803;DHT22;66993;48.256;16.422;2023-02-20T13:25:35;13.4;57.0
77803;DHT22;66993;48.256;16.422;2023-02-20T13:30:17;13.7;57.0
77803;DHT22;66993;48.256;16.422;2023-02-20T13:35:31;13.8;57.0
77803;DHT22;66993;48.256;16.422;2023-02-20T13:40:33;13.4;56.0
77803;DHT22;66993;48.256;16.422;2023-02-20T13:45:34;13.2;56.0
77803;DHT22;66993;48.256;16.422;2023-02-20T13:50:31;13.2;56.0
77803;DHT22;66993;48.256;16.422;2023-02-20T13:55:17;13.3;57.0
77803;DHT22;66993;48.256;16.422;2023-02-20T14:00:20;13.3;57.0
77803;DHT22;66993;48.256;16.422;2023-02-20T14:05:17;13.4;57.0
77803;DHT22;66993;48.256;16.422;2023-02-20T14:10:17;13.3;56.0
77803;DHT22;66993;48.256;16.422;2023-02-20T14:15:16;13.8;56.0
77803;DHT22;66993;48.256;16.422;2023-02-20T14:20:18;13.5;56.0
77803;DHT22;66993;48.256;16.422;2023-02-20T14:25:22;13.4;55.0
77803;DHT22;66993;48.256;16.422;2023-02-20T14:30:17;13.5;55.0
77803;DHT22;66993;48.256;16.422;2023-02-20T14:35:31;14.0;55.0
77803;DHT22;66993;48.256;16.422;2023-02-20T14:40:16;14.1;55.0
77803;DHT22;66993;48.256;16.422;2023-02-20T14:45:18;13.8;55.0
77803;DHT22;66993;48.256;16.422;2023-02-20T14:50:16;13.8;54.0
77803;DHT22;66993;48.256;16.422;2023-02-20T14:55:16;13.8;55.0
77803;DHT22;66993;48.256;16.422;2023-02-20T15:00:22;13.7;56.0
77803;DHT22;66993;48.256;16.422;2023-02-20T15:05:17;13.6;58.0
77803;DHT22;66993;48.256;16.422;2023-02-20T15:10:32;13.6;59.0
77803;DHT22;66993;48.256;16.422;2023-02-20T15:15:16;13.6;59.0
77803;DHT22;66993;48.256;16.422;2023-02-20T15:20:16;13.7;60.0
77803;DHT22;66993;48.256;16.422;2023-02-20T15:25:25;13.5;56.0
77803;DHT22;66993;48.256;16.422;2023-02-20T15:30:16;13.6;55.0
77803;DHT22;66993;48.256;16.422;2023-02-20T15:35:17;13.6;55.0
77803;DHT22;66993;48.256;16.422;2023-02-20T15:40:18;13.6;55.0
77803;DHT22;66993;48.256;16.422;2023-02-20T15:45:16;13.6;56.0
77803;DHT22;66993;48.256;16.422;2023-02-20T15:50:16;13.5;55.0
77803;DHT22;66993;48.256;16.422;2023-02-20T15:55:16;13.5;55.0
77803;DHT22;66993;48.256;16.422;2023-02-20T16:00:18;13.3;55.0
77803;DHT22;66993;48.256;16.422;2023-02-20T16:05:16;13.3;55.0
77803;DHT22;66993;48.256;16.422;2023-02-20T16:10:16;13.2;55.0
77803;DHT22;66993;48.256;16.422;2023-02-20T16:15:16;13.3;55.0
77803;DHT22;66993;48.256;16.422;2023-02-20T16:20:17;13.1;55.0
77803;DHT22;66993;48.256;16.422;2023-02-20T16:25:16;13.1;55.0
77803;DHT22;66993;48.256;16.422;2023-02-20T16:30:17;13.1;55.0
77803;DHT22;66993;48.256;16.422;2023-02-20T16:35:16;13.2;55.0
77803;DHT22;66993;48.256;16.422;2023-02-20T16:40:16;13.1;55.0
77803;DHT22;66993;48.256;16.422;2023-02-20T16:45:16;13.2;54.0
77803;DHT22;66993;48.256;16.422;2023-02-20T16:50:16;13.3;54.0
77803;DHT22;66993;48.256;16.422;2023-02-20T16:55:17;13.2;54.0
77803;DHT22;66993;48.256;16.422;2023-02-20T17:00:17;13.2;55.0
77803;DHT22;66993;48.256;16.422;2023-02-20T17:05:17;13.1;55.0
77803;DHT22;66993;48.256;16.422;2023-02-20T17:10:16;13.0;55.0
77803;DHT22;66993;48.256;16.422;2023-02-20T17:15:17;13.0;55.0
77803;DHT22;66993;48.256;16.422;2023-02-20T17:20:17;13.0;55.0
77803;DHT22;66993;48.256;16.422;2023-02-20T17:25:17;12.9;55.0
77803;DHT22;66993;48.256;16.422;2023-02-20T17:30:18;12.9;55.0
77803;DHT22;66993;48.256;16.422;2023-02-20T17:35:16;12.9;55.0
77803;DHT22;66993;48.256;16.422;2023-02-20T17:40:16;12.9;55.0
77803;DHT22;66993;48.256;16.422;2023-02-20T17:45:16;12.9;55.0
77803;DHT22;66993;48.256;16.422;2023-02-20T17:50:16;13.2;55.0
77803;DHT22;66993;48.256;16.422;2023-02-20T17:55:16;12.9;55.0
77803;DHT22;66993;48.256;16.422;2023-02-20T18:00:16;13.2;55.0
77803;DHT22;66993;48.256;16.422;2023-02-20T18:05:16;13.1;55.0
77803;DHT22;66993;48.256;16.422;2023-02-20T18:10:16;13.1;55.0
77803;DHT22;66993;48.256;16.422;2023-02-20T18:15:16;13.3;55.0
77803;DHT22;66993;48.256;16.422;2023-02-20T18:20:16;13.1;54.0
77803;DHT22;66993;48.256;16.422;2023-02-20T18:25:16;13.1;55.0
77803;DHT22;66993;48.256;16.422;2023-02-20T18:30:16;13.2;55.0
77803;DHT22;66993;48.256;16.422;2023-02-20T18:35:16;13.3;55.0
77803;DHT22;66993;48.256;16.422;2023-02-20T18:40:16;13.1;55.0
77803;DHT22;66993;48.256;16.422;2023-02-20T18:45:16;13.1;55.0
77803;DHT22;66993;48.256;16.422;2023-02-20T18:50:16;13.2;55.0
77803;DHT22;66993;48.256;16.422;2023-02-20T18:55:16;13.2;56.0
77803;DHT22;66993;48.256;16.422;2023-02-20T19:00:16;13.0;55.0
77803;DHT22;66993;48.256;16.422;2023-02-20T19:05:16;13.3;55.0
77803;DHT22;66993;48.256;16.422;2023-02-20T19:10:17;13.3;55.0
77803;DHT22;66993;48.256;16.422;2023-02-20T19:15:16;13.6;55.0
77803;DHT22;66993;48.256;16.422;2023-02-20T19:20:17;13.6;55.0
77803;DHT22;66993;48.256;16.422;2023-02-20T19:25:17;13.5;55.0
77803;DHT22;66993;48.256;16.422;2023-02-20T19:30:16;13.7;55.0
77803;DHT22;66993;48.256;16.422;2023-02-20T19:35:16;13.5;54.0
77803;DHT22;66993;48.256;16.422;2023-02-20T19:40:16;13.5;54.0
77803;DHT22;66993;48.256;16.422;2023-02-20T19:45:16;13.6;54.0
77803;DHT22;66993;48.256;16.422;2023-02-20T19:50:16;13.5;54.0
77803;DHT22;66993;48.256;16.422;2023-02-20T19:55:16;13.5;54.0
77803;DHT22;66993;48.256;16.422;2023-02-20T20:00:17;13.5;54.0
77803;DHT22;66993;48.256;16.422;2023-02-20T20:05:16;13.5;54.0
77803;DHT22;66993;48.256;16.422;2023-02-20T20:10:17;13.4;54.0
77803;DHT22;66993;48.256;16.422;2023-02-20T20:15:17;13.7;54.0
77803;DHT22;66993;48.256;16.422;2023-02-20T20:20:16;13.5;54.0
77803;DHT22;66993;48.256;16.422;2023-02-20T20:25:16;13.6;54.0
77803;DHT22;66993;48.256;16.422;2023-02-20T20:30:16;13.6;54.0
77803;DHT22;66993;48.256;16.422;2023-02-20T20:35:16;13.7;54.0
77803;DHT22;66993;48.256;16.422;2023-02-20T20:40:16;13.5;54.0
77803;DHT22;66993;48.256;16.422;2023-02-20T20:45:16;13.5;54.0
77803;DHT22;66993;48.256;16.422;2023-02-20T20:55:16;13.3;54.0
77803;DHT22;66993;48.256;16.422;2023-02-20T21:00:18;13.4;54.0
77803;DHT22;66993;48.256;16.422;2023-02-20T21:05:16;13.5;54.0
77803;DHT22;66993;48.256;16.422;2023-02-20T21:10:16;13.3;54.0
77803;DHT22;66993;48.256;16.422;2023-02-20T21:15:16;13.3;54.0
77803;DHT22;66993;48.256;16.422;2023-02-20T21:20:17;13.4;54.0
77803;DHT22;66993;48.256;16.422;2023-02-20T21:25:16;13.4;54.0
77803;DHT22;66993;48.256;16.422;2023-02-20T21:30:16;13.1;55.0
77803;DHT22;66993;48.256;16.422;2023-02-20T21:35:17;12.9;54.0
77803;DHT22;66993;48.256;16.422;2023-02-20T21:40:16;13.0;54.0
77803;DHT22;66993;48.256;16.422;2023-02-20T21:45:16;12.9;54.0
77803;DHT22;66993;48.256;16.422;2023-02-20T21:50:16;12.9;54.0
77803;DHT22;66993;48.256;16.422;2023-02-20T21:55:16;12.7;55.0
77803;DHT22;66993;48.256;16.422;2023-02-20T22:00:16;12.4;55.0
77803;DHT22;66993;48.256;16.422;2023-02-20T22:05:16;12.5;55.0
77803;DHT22;66993;48.256;16.422;2023-02-20T22:10:16;12.4;55.0
77803;DHT22;66993;48.256;16.422;2023-02-20T22:15:16;12.0;56.0
77803;DHT22;66993;48.256;16.422;2023-02-20T22:20:16;12.0;56.0
77803;DHT22;66993;48.256;16.422;2023-02-20T22:25:16;11.9;57.0
77803;DHT22;66993;48.256;16.422;2023-02-20T22:30:16;11.8;57.0
77803;DHT22;66993;48.256;16.422;2023-02-20T22:35:16;11.8;57.0
77803;DHT22;66993;48.256;16.422;2023-02-20T22:40:16;11.6;58.0
77803;DHT22;66993;48.256;16.422;2023-02-20T22:45:16;11.2;58.0
77803;DHT22;66993;48.256;16.422;2023-02-20T22:50:16;10.9;58.0
77803;DHT22;66993;48.256;16.422;2023-02-20T22:55:16;10.1;60.0
77803;DHT22;66993;48.256;16.422;2023-02-20T23:00:16;10.2;61.0
77803;DHT22;66993;48.256;16.422;2023-02-20T23:05:16;10.5;61.0
77803;DHT22;66993;48.256;16.422;2023-02-20T23:10:16;10.5;62.0
77803;DHT22;66993;48.256;16.422;2023-02-20T23:15:16;9.8;63.0
77803;DHT22;66993;48.256;16.422;2023-02-20T23:20:17;10.2;63.0
77803;DHT22;66993;48.256;16.422;2023-02-20T23:25:16;10.2;64.0
77803;DHT22;66993;48.256;16.422;2023-02-20T23:30:16;10.1;66.0
77803;DHT22;66993;48.256;16.422;2023-02-20T23:35:16;9.9;67.0
77803;DHT22;66993;48.256;16.422;2023-02-20T23:40:16;9.9;67.0
77803;DHT22;66993;48.256;16.422;2023-02-20T23:45:16;9.9;68.0
77803;DHT22;66993;48.256;16.422;2023-02-20T23:50:16;10.0;68.0
77803;DHT22;66993;48.256;16.422;2023-02-20T23:55:16;10.3;68.0
